createdAt,value
2022-09-03T00:02:13.536Z,99334.13
2022-09-03T00:04:53.532Z,99327.34
2022-09-03T00:07:48.219Z,99324.66
2022-09-03T00:10:44.759Z,99330.38
2022-09-03T00:13:18.573Z,99324.66
2022-09-03T00:15:46.237Z,99328.47
2022-09-03T00:18:23.292Z,99322.75
2022-09-03T00:21:17.157Z,99324.66
2022-09-03T00:23:49.499Z,99325.41
2022-09-03T00:26:28.892Z,99317.41
2022-09-03T00:29:28.685Z,99320.47
2022-09-03T00:32:03.919Z,99323.47
2022-09-03T00:34:40.903Z,99333.75
2022-09-03T00:37:14.250Z,99334.94
2022-09-03T00:39:43.571Z,99333.72
2022-09-03T00:42:47.458Z,99326.50
2022-09-03T00:45:54.891Z,99328.88
2022-09-03T00:48:30.927Z,99336.81
2022-09-03T00:51:20.504Z,99325.34
2022-09-03T00:54:20.880Z,99321.16
2022-09-03T00:57:13.878Z,99330.31
2022-09-03T01:00:05.362Z,99329.91
2022-09-03T01:02:56.885Z,99324.56
2022-09-03T01:05:48.215Z,99320.31
2022-09-03T01:08:50.976Z,99315.78
2022-09-03T01:11:47.321Z,99322.59
2022-09-03T01:15:09.876Z,99316.50
2022-09-03T01:18:11.925Z,99331.00
2022-09-03T01:20:55.851Z,99322.63
2022-09-03T01:23:50.659Z,99327.97
2022-09-03T01:26:35.561Z,99338.66
2022-09-03T01:29:50.035Z,99347.09
2022-09-03T01:32:58.621Z,99349.00
2022-09-03T01:35:48.728Z,99350.88
2022-09-03T01:38:58.498Z,99348.94
2022-09-03T01:42:08.057Z,99353.47
2022-09-03T01:45:12.859Z,99352.66
2022-09-03T01:48:26.256Z,99344.25
2022-09-03T01:51:11.063Z,99336.97
2022-09-03T01:54:17.980Z,99337.72
2022-09-03T01:57:34.613Z,99340.69
2022-09-03T02:00:16.250Z,99332.41
2022-09-03T02:02:48.199Z,99334.19
2022-09-03T02:05:27.951Z,99337.16
2022-09-03T02:08:01.547Z,99329.22
2022-09-03T02:11:02.728Z,99338.66
2022-09-03T02:13:40.280Z,99342.16
2022-09-03T02:16:19.033Z,99348.59
2022-09-03T02:19:13.255Z,99341.25
2022-09-03T02:21:52.554Z,99348.16
2022-09-03T02:24:20.485Z,99357.31
2022-09-03T02:26:48.329Z,99360.00
2022-09-03T02:29:18.609Z,99360.81
2022-09-03T02:31:46.449Z,99363.88
2022-09-03T02:34:14.505Z,99362.28
2022-09-03T02:36:49.017Z,99364.25
2022-09-03T02:39:17.666Z,99367.22
2022-09-03T02:41:45.188Z,99369.50
2022-09-03T02:44:33.728Z,99369.50
2022-09-03T02:47:06.298Z,99378.88
2022-09-03T02:49:34.263Z,99377.88
2022-09-03T02:52:06.538Z,99377.44
2022-09-03T02:54:39.675Z,99369.06
2022-09-03T02:57:09.847Z,99369.41
2022-09-03T02:59:39.810Z,99370.91
2022-09-03T03:02:07.763Z,99362.59
2022-09-03T03:04:35.912Z,99374.56
2022-09-03T03:07:03.510Z,99359.75
2022-09-03T03:09:31.070Z,99360.75
2022-09-03T03:11:58.624Z,99362.63
2022-09-03T03:14:26.260Z,99362.97
2022-09-03T03:16:53.895Z,99356.47
2022-09-03T03:19:21.409Z,99350.31
2022-09-03T03:21:48.953Z,99354.28
2022-09-03T03:24:16.599Z,99352.16
2022-09-03T03:26:45.058Z,99350.88
2022-09-03T03:29:20.741Z,99351.50
2022-09-03T03:31:48.285Z,99357.97
2022-09-03T03:34:18.967Z,99351.19
2022-09-03T03:36:46.470Z,99354.72
2022-09-03T03:39:15.463Z,99353.09
2022-09-03T03:41:43.441Z,99348.78
2022-09-03T03:44:11.072Z,99356.72
2022-09-03T03:46:41.527Z,99352.19
2022-09-03T03:49:11.227Z,99356.00
2022-09-03T03:51:40.832Z,99363.19
2022-09-03T03:54:08.451Z,99358.56
2022-09-03T03:56:36.609Z,99350.25
2022-09-03T03:59:05.309Z,99361.66
2022-09-03T04:01:33.151Z,99356.28
2022-09-03T04:04:01.091Z,99357.72
2022-09-03T04:06:29.479Z,99359.84
2022-09-03T04:08:57.145Z,99357.56
2022-09-03T04:11:26.092Z,99360.38
2022-09-03T04:13:54.911Z,99358.22
2022-09-03T04:16:29.326Z,99353.00
2022-09-03T04:18:57.881Z,99354.84
2022-09-03T04:21:31.531Z,99368.41
2022-09-03T04:24:00.057Z,99379.16
2022-09-03T04:26:34.095Z,99379.09
2022-09-03T04:29:06.479Z,99382.22
2022-09-03T04:31:36.555Z,99372.97
2022-09-03T04:34:09.485Z,99372.25
2022-09-03T04:36:37.711Z,99376.50
2022-09-03T04:39:05.209Z,99383.59
2022-09-03T04:41:32.893Z,99383.66
2022-09-03T04:44:01.077Z,99380.88
2022-09-03T04:46:33.938Z,99389.09
2022-09-03T04:49:02.722Z,99392.56
2022-09-03T04:51:31.231Z,99394.94
2022-09-03T04:54:02.995Z,99398.47
2022-09-03T04:56:34.120Z,99395.38
2022-09-03T04:59:05.973Z,99403.19
2022-09-03T05:01:36.050Z,99413.09
2022-09-03T05:04:05.425Z,99425.69
2022-09-03T05:06:34.427Z,99416.88
2022-09-03T05:09:02.525Z,99418.81
2022-09-03T05:11:30.907Z,99417.63
2022-09-03T05:14:00.863Z,99423.28
2022-09-03T05:16:31.028Z,99424.28
2022-09-03T05:19:01.293Z,99426.50
2022-09-03T05:21:30.760Z,99427.63
2022-09-03T05:24:01.896Z,99424.63
2022-09-03T05:26:38.761Z,99430.34
2022-09-03T05:29:08.222Z,99431.84
2022-09-03T05:31:39.582Z,99430.28
2022-09-03T05:34:14.032Z,99430.34
2022-09-03T05:36:45.367Z,99431.31
2022-09-03T05:39:13.411Z,99440.34
2022-09-03T05:41:41.095Z,99439.19
2022-09-03T05:44:09.332Z,99441.97
2022-09-03T05:46:37.038Z,99441.28
2022-09-03T05:49:07.595Z,99446.63
2022-09-03T05:51:39.537Z,99454.78
2022-09-03T05:54:08.867Z,99442.75
2022-09-03T05:56:40.215Z,99445.41
2022-09-03T05:59:10.598Z,99445.84
2022-09-03T06:01:43.991Z,99456.91
2022-09-03T06:04:20.301Z,99458.00
2022-09-03T06:06:50.053Z,99456.84
2022-09-03T06:09:23.274Z,99459.19
2022-09-03T06:11:52.442Z,99451.19
2022-09-03T06:14:20.707Z,99452.75
2022-09-03T06:16:50.165Z,99453.91
2022-09-03T06:19:19.818Z,99451.25
2022-09-03T06:21:48.624Z,99463.81
2022-09-03T06:24:26.402Z,99463.44
2022-09-03T06:26:59.436Z,99462.66
2022-09-03T06:29:27.700Z,99460.41
2022-09-03T06:31:56.005Z,99464.63
2022-09-03T06:34:27.260Z,99471.09
2022-09-03T06:36:54.942Z,99468.03
2022-09-03T06:39:23.054Z,99458.84
2022-09-03T06:41:52.073Z,99462.97
2022-09-03T06:44:29.581Z,99466.47
2022-09-03T06:47:01.396Z,99469.81
2022-09-03T06:49:29.044Z,99475.50
2022-09-03T06:51:56.560Z,99472.72
2022-09-03T06:54:25.276Z,99472.84
2022-09-03T06:56:52.779Z,99479.38
2022-09-03T06:59:20.582Z,99482.75
2022-09-03T07:01:48.401Z,99476.59
2022-09-03T07:04:19.149Z,99481.59
2022-09-03T07:06:47.319Z,99480.44
2022-09-03T07:09:15.944Z,99476.19
2022-09-03T07:11:47.980Z,99477.59
2022-09-03T07:14:20.772Z,99482.47
2022-09-03T07:16:50.610Z,99488.41
2022-09-03T07:19:18.723Z,99486.94
2022-09-03T07:21:50.748Z,99486.09
2022-09-03T07:24:22.085Z,99483.94
2022-09-03T07:26:50.095Z,99490.03
2022-09-03T07:29:21.870Z,99501.91
2022-09-03T07:31:52.152Z,99496.19
2022-09-03T07:34:22.186Z,99497.59
2022-09-03T07:36:52.554Z,99504.31
2022-09-03T07:39:20.461Z,99500.91
2022-09-03T07:41:48.849Z,99498.69
2022-09-03T07:44:24.477Z,99494.00
2022-09-03T07:46:52.728Z,99509.84
2022-09-03T07:49:21.882Z,99499.09
2022-09-03T07:51:54.317Z,99509.31
2022-09-03T07:54:23.926Z,99513.75
2022-09-03T07:56:51.624Z,99509.50
2022-09-03T07:59:20.502Z,99504.22
2022-09-03T08:01:48.141Z,99498.59
2022-09-03T08:04:15.706Z,99499.44
2022-09-03T08:06:43.509Z,99493.00
2022-09-03T08:09:15.496Z,99500.59
2022-09-03T08:11:44.138Z,99492.53
2022-09-03T08:14:14.241Z,99489.41
2022-09-03T08:16:48.216Z,99482.38
2022-09-03T08:19:18.854Z,99489.91
2022-09-03T08:21:47.412Z,99486.44
2022-09-03T08:24:18.155Z,99485.84
2022-09-03T08:26:52.018Z,99474.22
2022-09-03T08:29:21.766Z,99481.13
2022-09-03T08:31:49.725Z,99486.19
2022-09-03T08:34:18.228Z,99480.06
2022-09-03T08:36:47.354Z,99479.56
2022-09-03T08:39:15.698Z,99491.91
2022-09-03T08:41:57.770Z,99478.09
2022-09-03T08:44:58.705Z,99472.19
2022-09-03T08:48:21.649Z,99473.50
2022-09-03T08:50:59.244Z,99471.63
2022-09-03T08:54:01.013Z,99472.44
2022-09-03T08:56:31.414Z,99474.78
2022-09-03T08:59:01.010Z,99475.47
2022-09-03T09:01:47.592Z,99471.53
2022-09-03T09:04:44.384Z,99466.47
2022-09-03T09:07:35.861Z,99456.94
2022-09-03T09:10:37.481Z,99451.69
2022-09-03T09:13:32.400Z,99451.38
2022-09-03T09:16:36.859Z,99459.00
2022-09-03T09:19:32.062Z,99461.69
2022-09-03T09:22:09.984Z,99453.34
2022-09-03T09:24:45.401Z,99457.06
2022-09-03T09:27:19.768Z,99452.88
2022-09-03T09:29:50.964Z,99468.09
2022-09-03T09:32:21.755Z,99462.03
2022-09-03T09:34:52.252Z,99465.59
2022-09-03T09:37:21.579Z,99453.38
2022-09-03T09:40:01.133Z,99464.28
2022-09-03T09:42:31.181Z,99461.47
2022-09-03T09:45:10.795Z,99456.00
2022-09-03T09:47:42.546Z,99462.84
2022-09-03T09:50:24.920Z,99455.72
2022-09-03T09:53:14.500Z,99451.09
2022-09-03T09:55:59.120Z,99461.19
2022-09-03T09:58:31.160Z,99459.72
2022-09-03T10:01:03.287Z,99465.19
2022-09-03T10:03:35.759Z,99462.03
2022-09-03T10:06:28.516Z,99462.22
2022-09-03T10:09:12.490Z,99457.63
2022-09-03T10:11:46.305Z,99452.88
2022-09-03T10:14:32.731Z,99450.28
2022-09-03T10:17:36.650Z,99439.03
2022-09-03T10:20:27.902Z,99441.31
2022-09-03T10:23:24.966Z,99435.81
2022-09-03T10:26:15.177Z,99434.41
2022-09-03T10:28:43.817Z,99435.53
2022-09-03T10:31:36.772Z,99442.22
2022-09-03T10:34:16.480Z,99433.72
2022-09-03T10:37:15.730Z,99436.53
2022-09-03T10:40:31.056Z,99430.63
2022-09-03T10:43:16.957Z,99433.59
2022-09-03T10:45:47.600Z,99425.88
2022-09-03T10:48:38.357Z,99423.97
2022-09-03T10:51:47.484Z,99428.94
2022-09-03T10:54:44.141Z,99418.91
2022-09-03T10:57:35.188Z,99427.00
2022-09-03T11:00:15.433Z,99418.91
2022-09-03T11:03:26.041Z,99423.03
2022-09-03T11:06:30.086Z,99419.69
2022-09-03T11:09:27.127Z,99423.50
2022-09-03T11:12:31.303Z,99421.16
2022-09-03T11:15:27.690Z,99419.56
2022-09-03T11:18:17.148Z,99417.16
2022-09-03T11:20:45.751Z,99427.72
2022-09-03T11:23:14.989Z,99418.31
2022-09-03T11:25:54.320Z,99419.72
2022-09-03T11:29:01.461Z,99425.31
2022-09-03T11:32:02.352Z,99429.91
2022-09-03T11:34:47.482Z,99433.94
2022-09-03T11:37:28.762Z,99428.47
2022-09-03T11:40:20.192Z,99414.81
2022-09-03T11:42:48.477Z,99413.59
2022-09-03T11:45:41.549Z,99413.03
2022-09-03T11:48:38.831Z,99414.03
2022-09-03T11:51:19.628Z,99407.59
2022-09-03T11:54:11.860Z,99412.03
2022-09-03T11:56:42.079Z,99400.44
2022-09-03T11:59:24.854Z,99398.59
2022-09-03T12:02:05.724Z,99396.44
2022-09-03T12:05:16.087Z,99407.84
2022-09-03T12:08:26.736Z,99400.75
2022-09-03T12:11:25.717Z,99397.63
2022-09-03T12:14:30.108Z,99396.78
2022-09-03T12:18:14.080Z,99399.66
2022-09-03T12:20:44.200Z,99390.44
2022-09-03T12:23:17.141Z,99395.50
2022-09-03T12:25:47.575Z,99395.94
2022-09-03T12:28:25.014Z,99391.34
2022-09-03T12:30:54.128Z,99388.19
2022-09-03T12:33:23.961Z,99386.59
2022-09-03T12:36:03.156Z,99385.81
2022-09-03T12:38:40.628Z,99387.34
2022-09-03T12:41:34.597Z,99384.72
2022-09-03T12:44:06.076Z,99381.06
2022-09-03T12:46:35.097Z,99384.59
2022-09-03T12:52:06.590Z,99377.66
2022-09-03T12:54:50.417Z,99378.31
2022-09-03T12:57:26.572Z,99384.47
2022-09-03T13:00:00.703Z,99374.22
2022-09-03T13:02:41.134Z,99377.25
2022-09-03T13:05:19.452Z,99366.84
2022-09-03T13:07:53.697Z,99364.47
2022-09-03T13:10:52.316Z,99362.41
2022-09-03T13:13:26.759Z,99366.88
2022-09-03T13:16:41.706Z,99357.13
2022-09-03T13:19:43.678Z,99362.38
2022-09-03T13:22:50.391Z,99362.22
2022-09-03T13:25:46.582Z,99355.22
2022-09-03T13:28:29.921Z,99364.00
2022-09-03T13:31:19.584Z,99362.41
2022-09-03T13:34:07.415Z,99368.41
2022-09-03T13:37:04.968Z,99365.72
2022-09-03T13:39:42.307Z,99357.03
2022-09-03T13:42:26.193Z,99355.97
2022-09-03T13:45:22.650Z,99359.16
2022-09-03T13:48:26.793Z,99360.03
2022-09-03T13:51:05.704Z,99361.50
2022-09-03T13:54:48.295Z,99352.38
2022-09-03T13:58:01.554Z,99351.66
2022-09-03T14:00:48.476Z,99362.84
2022-09-03T14:03:52.195Z,99353.22
2022-09-03T14:06:41.063Z,99353.84
2022-09-03T14:09:31.134Z,99353.34
2022-09-03T14:12:10.911Z,99355.47
2022-09-03T14:15:10.925Z,99366.94
2022-09-03T14:18:11.402Z,99362.09
2022-09-03T14:21:06.229Z,99359.63
2022-09-03T14:23:46.585Z,99370.22
2022-09-03T14:26:38.632Z,99376.63
2022-09-03T14:29:18.557Z,99368.75
2022-09-03T14:32:16.567Z,99380.13
2022-09-03T14:35:00.803Z,99370.78
2022-09-03T14:38:10.535Z,99370.75
2022-09-03T14:40:52.503Z,99367.81
2022-09-03T14:44:01.100Z,99378.09
2022-09-03T14:47:22.441Z,99379.75
2022-09-03T14:50:14.501Z,99386.66
2022-09-03T14:53:31.891Z,99380.53
2022-09-03T14:56:26.385Z,99394.00
2022-09-03T14:59:49.937Z,99392.63
2022-09-03T15:02:46.596Z,99391.09
2022-09-03T15:05:36.833Z,99394.56
2022-09-03T15:08:24.265Z,99396.69
2022-09-03T15:10:59.417Z,99390.78
2022-09-03T15:13:55.181Z,99386.22
2022-09-03T15:16:33.653Z,99395.56
2022-09-03T15:19:28.027Z,99404.38
2022-09-03T15:22:26.318Z,99407.47
2022-09-03T15:25:21.734Z,99408.44
2022-09-03T15:28:11.783Z,99403.44
2022-09-03T15:31:10.395Z,99411.50
2022-09-03T15:33:51.300Z,99428.19
2022-09-03T15:36:23.472Z,99428.56
2022-09-03T15:39:09.822Z,99438.16
2022-09-03T15:42:01.899Z,99427.28
2022-09-03T15:44:52.554Z,99431.75
2022-09-03T15:47:51.551Z,99441.16
2022-09-03T15:50:28.666Z,99442.75
2022-09-03T15:53:14.390Z,99439.06
2022-09-03T15:55:44.255Z,99446.22
2022-09-03T15:58:49.263Z,99451.22
2022-09-03T16:01:48.564Z,99450.56
2022-09-03T16:04:40.409Z,99451.94
2022-09-03T16:07:37.715Z,99444.19
2022-09-03T16:10:24.791Z,99446.31
2022-09-03T16:13:27.223Z,99446.63
2022-09-03T16:16:09.680Z,99444.53
2022-09-03T16:18:49.989Z,99446.03
2022-09-03T16:21:46.654Z,99451.00
2022-09-03T16:24:39.139Z,99449.56
2022-09-03T16:27:30.766Z,99461.44
2022-09-03T16:30:08.347Z,99459.28
2022-09-03T16:32:57.647Z,99467.91
2022-09-03T16:35:53.412Z,99462.19
2022-09-03T16:38:59.920Z,99466.16
2022-09-03T16:41:43.445Z,99471.88
2022-09-03T16:44:54.781Z,99468.16
2022-09-03T16:47:41.056Z,99476.03
2022-09-03T16:50:29.698Z,99486.38
2022-09-03T16:53:30.008Z,99485.16
2022-09-03T16:56:35.745Z,99491.47
2022-09-03T16:59:42.569Z,99497.97
2022-09-03T17:02:41.334Z,99501.16
2022-09-03T17:05:40.527Z,99501.53
2022-09-03T17:08:36.774Z,99506.91
2022-09-03T17:11:15.360Z,99510.00
2022-09-03T17:14:16.942Z,99508.22
2022-09-03T17:17:20.934Z,99520.59
2022-09-03T17:20:16.013Z,99526.97
2022-09-03T17:23:00.087Z,99532.06
2022-09-03T17:25:37.681Z,99530.44
2022-09-03T17:28:10.700Z,99538.16
2022-09-03T17:31:06.155Z,99534.41
2022-09-03T17:34:06.816Z,99557.06
2022-09-03T17:36:39.216Z,99556.22
2022-09-03T17:39:49.373Z,99565.09
2022-09-03T17:42:51.263Z,99571.03
2022-09-03T17:45:34.156Z,99573.66
2022-09-03T17:48:18.459Z,99574.06
2022-09-03T17:51:15.586Z,99579.03
2022-09-03T17:54:05.243Z,99588.22
2022-09-03T17:57:13.226Z,99593.22
2022-09-03T18:00:01.480Z,99596.25
2022-09-03T18:02:59.538Z,99594.28
2022-09-03T18:05:51.499Z,99604.81
2022-09-03T18:08:50.610Z,99607.16
2022-09-03T18:11:35.866Z,99611.97
2022-09-03T18:15:11.977Z,99618.47
2022-09-03T18:17:59.604Z,99623.88
2022-09-03T18:21:21.152Z,99626.91
2022-09-03T18:24:18.532Z,99635.38
2022-09-03T18:27:18.421Z,99635.38
2022-09-03T18:30:24.527Z,99644.13
2022-09-03T18:33:11.279Z,99652.16
2022-09-03T18:35:57.625Z,99641.06
2022-09-03T18:38:52.915Z,99646.88
2022-09-03T18:42:13.534Z,99650.69
2022-09-03T18:45:21.482Z,99652.25
2022-09-03T18:48:20.655Z,99662.59
2022-09-03T18:51:10.024Z,99665.69
2022-09-03T18:54:20.981Z,99666.50
2022-09-03T18:57:12.565Z,99679.50
2022-09-03T19:00:16.692Z,99679.13
2022-09-03T19:03:26.061Z,99684.47
2022-09-03T19:07:09.749Z,99690.59
2022-09-03T19:10:14.908Z,99690.63
2022-09-03T19:13:45.155Z,99699.78
2022-09-03T19:16:58.958Z,99703.19
2022-09-03T19:20:09.129Z,99712.00
2022-09-03T19:23:00.505Z,99713.53
2022-09-03T19:25:49.191Z,99712.00
2022-09-03T19:28:39.422Z,99712.38
2022-09-03T19:31:55.784Z,99706.66
2022-09-03T19:35:38.685Z,99704.75
2022-09-03T19:38:46.666Z,99714.31
2022-09-03T19:42:07.590Z,99721.56
2022-09-03T19:45:19.796Z,99722.72
2022-09-03T19:48:51.889Z,99716.56
2022-09-03T19:51:58.412Z,99720.75
2022-09-03T19:54:49.385Z,99729.97
2022-09-03T19:57:38.221Z,99726.47
2022-09-03T20:00:31.359Z,99730.31
2022-09-03T20:03:23.044Z,99737.53
2022-09-03T20:06:11.571Z,99742.50
2022-09-03T20:08:58.314Z,99745.19
2022-09-03T20:11:31.609Z,99750.16
2022-09-03T20:14:15.908Z,99758.88
2022-09-03T20:17:12.467Z,99759.22
2022-09-03T20:20:49.092Z,99771.09
2022-09-03T20:24:04.487Z,99773.00
2022-09-03T20:27:49.024Z,99768.47
2022-09-03T20:30:24.989Z,99770.78
2022-09-03T20:33:11.632Z,99778.50
2022-09-03T20:35:51.591Z,99774.19
2022-09-03T20:38:46.368Z,99772.25
2022-09-03T20:41:38.557Z,99775.34
2022-09-03T20:44:20.771Z,99784.81
2022-09-03T20:47:36.447Z,99791.28
2022-09-03T20:50:51.048Z,99786.31
2022-09-03T20:54:10.977Z,99789.78
2022-09-03T20:57:05.789Z,99792.59
2022-09-03T21:00:12.620Z,99802.47
2022-09-03T21:03:03.868Z,99805.56
2022-09-03T21:05:52.011Z,99811.97
2022-09-03T21:08:43.752Z,99807.38
2022-09-03T21:11:14.676Z,99817.25
2022-09-03T21:14:33.561Z,99824.47
2022-09-03T21:17:19.818Z,99818.34
2022-09-03T21:20:11.686Z,99823.66
2022-09-03T21:23:24.580Z,99828.25
2022-09-03T21:26:01.711Z,99830.16
2022-09-03T21:28:34.354Z,99836.19
2022-09-03T21:31:14.243Z,99832.00
2022-09-03T21:33:54.217Z,99835.50
2022-09-03T21:36:30.514Z,99831.38
2022-09-03T21:39:35.525Z,99841.28
2022-09-03T21:42:28.398Z,99827.91
2022-09-03T21:45:14.057Z,99829.47
2022-09-03T21:48:09.210Z,99826.41
2022-09-03T21:50:51.492Z,99822.97
2022-09-03T21:53:33.282Z,99820.28
2022-09-03T21:56:53.362Z,99818.75
2022-09-03T22:00:19.370Z,99816.81
2022-09-03T22:02:50.492Z,99820.22
2022-09-03T22:05:20.090Z,99807.59
2022-09-03T22:08:18.922Z,99807.06
2022-09-03T22:11:37.646Z,99798.59
2022-09-03T22:14:17.678Z,99800.84
2022-09-03T22:44:33.485Z,99802.94
2022-09-03T22:50:53.058Z,99801.44
2022-09-03T22:54:00.580Z,99787.16
2022-09-03T22:56:35.667Z,99796.25
2022-09-03T22:59:24.177Z,99792.00
2022-09-03T23:02:18.574Z,99796.47
2022-09-03T23:05:02.309Z,99790.03
2022-09-03T23:08:03.240Z,99786.94
2022-09-03T23:10:53.934Z,99789.84
2022-09-03T23:13:37.273Z,99789.56
2022-09-03T23:16:21.806Z,99794.03
2022-09-03T23:18:51.521Z,99802.03
2022-09-03T23:21:41.043Z,99802.25
2022-09-03T23:24:35.620Z,99816.31
2022-09-03T23:27:11.193Z,99807.72
2022-09-03T23:30:00.902Z,99816.91
2022-09-03T23:32:33.226Z,99817.22
2022-09-03T23:35:04.497Z,99817.13
2022-09-03T23:37:56.651Z,99816.59
2022-09-03T23:40:50.352Z,99810.69
2022-09-03T23:43:48.337Z,99816.66
2022-09-03T23:46:48.959Z,99818.28
2022-09-03T23:49:52.123Z,99826.19
2022-09-03T23:52:56.702Z,99822.34
2022-09-03T23:55:48.769Z,99829.75
2022-09-03T23:58:37.137Z,99838.91
